Baruunkharaa, Mongolia
Current Conditions -  °F | °C
As of 6:00 PM on Monday 22 Dec 2014 (Local Time) from ZMUB Reporting Station
Clear Clear  
Wind Chill:   Ceiling: Unl
Heat Index:   Visibility: 6mi
Dew Point: -4°   Wind: 2mph
Humidity: 78%   Direction: NA
Pressure: 29.97"   Gusts: NA
Location:  48.92°N, 106.07°E
Report Text: ZMUB 221000Z VRB01MPS CAVOK M17/M20 Q1015 NOSIG RMK QFE654.0 76
Loading
Personal Weather Stations






























Interactive Weather Map New forecast layout! Learn more

10-Day Weather Forecast

Advertisements
Track Severe Weather on mobile